الصفحة الرئيسية
METAR-TAF:

METAR-TAF

مطار :

مطار معيتيقة الدولي

طرابلس, ليبيا

دائرة عرض: 32-54N, خط طول: 13-17E, ارتفاع: 11 متر

مراقبة الطقس الحالي

تاريخ ووقت الإصدار 55 دقيقة قبل الساعة 10:50UTC
ريح 9 عقدة من الشرق/الشمال الشرقي
درجة الحرارة 26°درجة مئوية
الرطوبة 54%
ضغط 1019 hPa
الرؤية: 8000 متر

METAR: HLLM 271050Z 06009KT 8000 NSC 26/16 Q1019

زمن: 13:45 (11:45 UTC)

توقعات

تاريخ ووقت الإصدار 45 دقيقة قبل الساعة 11:00UTC
التوقعات صالحة من27 الساعة 12 UTC إلى 28 الساعة 12 UTC
ريح 15 عقدة من الشرق/الشمال الشرقي
الرؤية 10 كم أو أكثر
الغيوم لا تقل 1500 م ولا وجود لمزنة ركامية السحاب الأسود
أصبح
من 28 الساعة 00 UTC إلى 28 الساعة 02 UTC
ريح 10 عقدة من الشرق/الجنوب الشرقي
أصبح
من 28 الساعة 10 UTC إلى 28 الساعة 12 UTC
ريح 15 عقدة من الشرق/الشمال الشرقي

TAF: HLLM 271100Z 2712/2812 06015KT CAVOK BECMG 2800/2802 12010KT BECMG 2810/2812 06015KT

أرصاد الطقس والتوقعات من أكثر من 4000 مطار (تقارير الطقس للمطار METAR والتنبؤ بالطقس بالمطارTAF).

المحطات المتاحة هي النقط الصفراء والحمراء على الخريطة.

حرك المؤشر فوق النقطة لمعرفة اسم المحطة.

ثم انقر لمعرفة أرصاد وتوقعات الطقس.

لتغيير الخارطة: اضغط على الأزرار الخضراء مع رمز الصليب الأسود للتكبير. على الزر الأخضر مع شرطة للتصغير، أو على الأسهم الخضراء للخرائط المجاورة.


METAR-TAF: